createdAt,value
2018-03-08T00:01:58.949Z,91.23
2018-03-08T00:03:05.039Z,91.28
2018-03-08T00:04:10.865Z,91.56
2018-03-08T00:05:17.017Z,91.88
2018-03-08T00:06:23.112Z,92.00
2018-03-08T00:07:29.243Z,92.15
2018-03-08T00:08:35.361Z,92.21
2018-03-08T00:09:41.510Z,92.66
2018-03-08T00:10:47.615Z,92.64
2018-03-08T00:11:53.447Z,92.53
2018-03-08T00:12:59.647Z,92.50
2018-03-08T00:14:05.523Z,92.35
2018-03-08T00:15:11.646Z,92.40
2018-03-08T00:16:17.818Z,92.48
2018-03-08T00:17:23.948Z,92.47
2018-03-08T00:18:30.043Z,92.51
2018-03-08T00:19:36.166Z,92.84
2018-03-08T00:20:42.326Z,92.84
2018-03-08T00:21:48.472Z,93.05
2018-03-08T00:22:54.629Z,92.99
2018-03-08T00:24:00.792Z,93.05
2018-03-08T00:25:06.926Z,93.16
2018-03-08T00:26:13.012Z,92.95
2018-03-08T00:27:19.197Z,92.73
2018-03-08T00:28:29.192Z,92.60
2018-03-08T00:29:35.342Z,92.76
2018-03-08T00:30:41.443Z,92.79
2018-03-08T00:31:49.589Z,92.92
2018-03-08T00:32:55.729Z,92.83
2018-03-08T00:34:01.875Z,92.64
2018-03-08T00:35:08.023Z,92.34
2018-03-08T00:36:14.147Z,92.12
2018-03-08T00:37:20.246Z,91.88
2018-03-08T00:38:26.373Z,91.62
2018-03-08T00:39:33.101Z,91.53
2018-03-08T00:40:39.200Z,91.10
2018-03-08T00:41:45.320Z,90.91
2018-03-08T00:42:51.491Z,91.09
2018-03-08T00:43:58.808Z,91.13
2018-03-08T00:45:04.245Z,91.29
2018-03-08T00:46:10.456Z,91.26
2018-03-08T00:47:16.543Z,91.05
2018-03-08T00:48:22.654Z,91.10
2018-03-08T00:49:28.768Z,91.25
2018-03-08T00:50:34.858Z,91.54
2018-03-08T00:51:46.305Z,91.56
2018-03-08T00:52:52.384Z,91.77
2018-03-08T00:53:58.568Z,91.62
2018-03-08T00:55:04.317Z,91.75
2018-03-08T00:56:10.465Z,91.78
2018-03-08T00:57:16.917Z,91.48
2018-03-08T00:58:23.068Z,91.27
2018-03-08T00:59:29.215Z,91.28
2018-03-08T01:00:44.543Z,91.18
2018-03-08T01:01:50.678Z,91.31
2018-03-08T01:02:56.779Z,91.18
2018-03-08T01:04:02.916Z,91.19
2018-03-08T01:05:11.509Z,91.19
2018-03-08T01:06:17.673Z,91.40
2018-03-08T01:07:24.040Z,91.31
2018-03-08T01:08:30.179Z,91.41
2018-03-08T01:09:36.309Z,91.41
2018-03-08T01:10:42.416Z,91.34
2018-03-08T01:11:48.512Z,91.55
2018-03-08T01:12:59.757Z,91.72
2018-03-08T01:14:06.230Z,91.45
2018-03-08T01:15:12.348Z,91.24
2018-03-08T01:16:18.562Z,91.11
2018-03-08T01:17:24.684Z,91.24
2018-03-08T01:18:30.785Z,91.48
2018-03-08T01:19:36.945Z,91.84
2018-03-08T01:20:43.033Z,92.12
2018-03-08T01:21:49.152Z,92.17
2018-03-08T01:22:55.502Z,92.02
2018-03-08T01:24:01.622Z,92.46
2018-03-08T01:25:07.786Z,92.72
2018-03-08T01:26:14.811Z,92.64
2018-03-08T01:27:20.732Z,92.76
2018-03-08T01:28:26.877Z,92.69
2018-03-08T01:29:33.026Z,92.76
2018-03-08T01:30:39.140Z,92.50
2018-03-08T01:31:45.333Z,92.35
2018-03-08T01:32:52.093Z,92.34
2018-03-08T01:33:57.975Z,92.36
2018-03-08T01:35:04.080Z,92.64
2018-03-08T01:36:21.271Z,92.54
2018-03-08T01:37:27.142Z,92.48
2018-03-08T01:38:33.433Z,92.50
2018-03-08T01:39:39.573Z,92.40
2018-03-08T01:40:45.691Z,92.52
2018-03-08T01:41:51.806Z,92.30
2018-03-08T01:43:00.761Z,92.57
2018-03-08T01:44:11.046Z,92.37
2018-03-08T01:45:17.144Z,92.40
2018-03-08T01:46:23.308Z,92.39
2018-03-08T01:47:30.325Z,92.58
2018-03-08T01:48:37.312Z,92.55
2018-03-08T01:49:43.494Z,92.60
2018-03-08T01:50:49.658Z,92.97
2018-03-08T01:52:07.625Z,93.12
2018-03-08T01:53:19.361Z,93.25
2018-03-08T01:54:25.527Z,93.08
2018-03-08T01:55:31.872Z,92.65
2018-03-08T01:56:37.977Z,92.28
2018-03-08T01:57:43.875Z,92.04
2018-03-08T01:58:50.325Z,92.07
2018-03-08T01:59:56.156Z,92.00
2018-03-08T02:01:02.268Z,92.04
2018-03-08T02:02:07.385Z,91.87
2018-03-08T02:03:12.244Z,91.84
2018-03-08T02:04:18.445Z,91.79
2018-03-08T02:05:24.885Z,91.90
2018-03-08T02:06:31.004Z,91.58
2018-03-08T02:07:37.176Z,91.46
2018-03-08T02:08:43.279Z,91.43
2018-03-08T02:09:49.446Z,91.25
2018-03-08T02:10:55.580Z,91.16
2018-03-08T02:12:01.714Z,91.05
2018-03-08T02:13:07.842Z,91.03
2018-03-08T02:14:13.974Z,90.98
2018-03-08T02:15:20.142Z,91.16
2018-03-08T02:16:26.360Z,90.80
2018-03-08T02:17:32.478Z,90.49
2018-03-08T02:18:38.626Z,90.53
2018-03-08T02:19:47.648Z,90.73
2018-03-08T02:20:53.877Z,90.88
2018-03-08T02:22:00.124Z,90.75
2018-03-08T02:23:06.346Z,90.72
2018-03-08T02:24:12.495Z,90.70
2018-03-08T02:25:18.597Z,90.75
2018-03-08T02:26:24.782Z,91.03
2018-03-08T02:27:30.918Z,91.28
2018-03-08T02:28:37.127Z,91.54
2018-03-08T02:29:43.328Z,91.93
2018-03-08T02:30:49.508Z,92.18
2018-03-08T02:31:55.988Z,92.07
2018-03-08T02:33:02.117Z,92.28
2018-03-08T02:34:08.243Z,92.36
2018-03-08T02:35:14.368Z,92.44
2018-03-08T02:36:20.484Z,92.63
2018-03-08T02:37:26.597Z,92.60
2018-03-08T02:38:33.745Z,92.50
2018-03-08T02:39:40.531Z,92.42
2018-03-08T02:40:46.711Z,92.99
2018-03-08T02:41:52.892Z,92.91
2018-03-08T02:42:59.048Z,92.90
2018-03-08T02:44:05.216Z,92.98
2018-03-08T02:45:11.336Z,92.73
2018-03-08T02:46:17.492Z,92.56
2018-03-08T02:47:23.395Z,92.23
2018-03-08T02:48:29.568Z,92.48
2018-03-08T02:49:35.705Z,92.29
2018-03-08T02:50:41.829Z,92.09
2018-03-08T02:51:53.574Z,92.08
2018-03-08T02:52:59.744Z,92.30
2018-03-08T02:54:05.838Z,92.58
2018-03-08T02:55:11.950Z,92.31
2018-03-08T02:56:18.437Z,92.32
2018-03-08T02:57:24.600Z,92.28
2018-03-08T02:58:30.800Z,92.23
2018-03-08T02:59:36.965Z,92.34
2018-03-08T03:00:45.960Z,92.72
2018-03-08T03:01:52.134Z,92.84
2018-03-08T03:02:58.283Z,93.01
2018-03-08T03:04:04.065Z,93.07
2018-03-08T03:05:09.946Z,93.33
2018-03-08T03:06:16.150Z,93.37
2018-03-08T03:07:22.309Z,93.18
2018-03-08T03:08:28.497Z,93.05
2018-03-08T03:09:34.259Z,93.28
2018-03-08T03:10:39.765Z,93.31
2018-03-08T03:11:45.637Z,93.45
2018-03-08T03:12:51.755Z,93.37
2018-03-08T03:13:57.882Z,93.33
2018-03-08T03:15:03.432Z,93.41
2018-03-08T03:16:09.587Z,93.55
2018-03-08T03:17:15.888Z,93.39
2018-03-08T03:18:21.696Z,93.50
2018-03-08T03:19:27.853Z,93.32
2018-03-08T03:20:33.972Z,93.00
2018-03-08T03:21:40.166Z,92.98
2018-03-08T03:22:46.374Z,93.51
2018-03-08T03:23:52.502Z,93.74
2018-03-08T03:24:58.709Z,93.43
2018-03-08T03:26:05.019Z,93.18
2018-03-08T03:27:11.187Z,93.33
2018-03-08T03:28:17.330Z,93.26
2018-03-08T03:29:23.492Z,93.20
2018-03-08T03:30:29.665Z,93.17
2018-03-08T03:31:35.786Z,93.10
2018-03-08T03:32:41.961Z,93.01
2018-03-08T03:33:48.143Z,93.01
2018-03-08T03:34:54.253Z,93.19
2018-03-08T03:36:00.392Z,93.14
2018-03-08T03:37:06.540Z,93.25
2018-03-08T03:38:12.716Z,93.30
2018-03-08T03:39:18.824Z,93.27
2018-03-08T03:40:24.993Z,93.10
2018-03-08T03:41:31.141Z,93.01
2018-03-08T03:42:37.267Z,93.41
2018-03-08T03:43:43.423Z,93.42
2018-03-08T03:44:49.227Z,93.61
2018-03-08T03:45:55.372Z,93.54
2018-03-08T03:47:02.434Z,93.50
2018-03-08T03:48:08.547Z,93.65
2018-03-08T03:49:14.653Z,93.69
2018-03-08T03:50:20.807Z,93.77
2018-03-08T03:51:26.939Z,93.75
2018-03-08T03:52:33.098Z,93.81
2018-03-08T03:53:39.267Z,93.91
2018-03-08T03:54:45.404Z,93.93
2018-03-08T03:55:51.782Z,93.90
2018-03-08T03:56:57.922Z,93.84
2018-03-08T03:58:03.755Z,94.06
2018-03-08T03:59:10.125Z,94.21
2018-03-08T04:00:16.250Z,94.24
2018-03-08T04:01:22.390Z,94.28
2018-03-08T04:02:28.548Z,94.57
2018-03-08T04:03:34.729Z,94.56
2018-03-08T04:04:40.889Z,94.62
2018-03-08T04:05:47.088Z,94.53
2018-03-08T04:06:55.236Z,94.60
2018-03-08T04:08:01.361Z,94.49
2018-03-08T04:09:07.534Z,94.51
2018-03-08T04:10:13.697Z,94.45
2018-03-08T04:11:19.866Z,94.41
2018-03-08T04:12:25.990Z,94.35
2018-03-08T04:13:32.188Z,94.05
2018-03-08T04:14:38.700Z,94.10
2018-03-08T04:15:44.567Z,94.18
2018-03-08T04:16:50.744Z,94.13
2018-03-08T04:17:56.855Z,94.09
2018-03-08T04:19:03.024Z,93.97
2018-03-08T04:20:09.185Z,93.93
2018-03-08T04:21:15.327Z,93.91
2018-03-08T04:22:21.465Z,93.95
2018-03-08T04:23:27.722Z,93.85
2018-03-08T04:24:33.915Z,93.96
2018-03-08T04:25:40.031Z,93.68
2018-03-08T04:26:46.204Z,93.75
2018-03-08T04:27:52.495Z,93.57
2018-03-08T04:28:58.688Z,93.62
2018-03-08T04:30:04.151Z,93.68
2018-03-08T04:31:10.273Z,93.62
2018-03-08T04:32:16.434Z,93.47
2018-03-08T04:33:22.567Z,93.35
2018-03-08T04:34:28.673Z,93.21
2018-03-08T04:35:34.845Z,92.96
2018-03-08T04:36:40.992Z,92.77
2018-03-08T04:37:47.095Z,92.33
2018-03-08T04:38:53.198Z,92.05
2018-03-08T04:39:59.368Z,92.07
2018-03-08T04:41:05.524Z,91.95
2018-03-08T04:42:11.689Z,91.99
2018-03-08T04:43:18.250Z,92.15
2018-03-08T04:44:24.409Z,92.13
2018-03-08T04:45:30.561Z,92.13
2018-03-08T04:46:37.013Z,92.16
2018-03-08T04:47:43.142Z,92.20
2018-03-08T04:48:49.292Z,92.16
2018-03-08T04:49:55.380Z,92.18
2018-03-08T04:51:01.473Z,92.40
2018-03-08T04:52:08.518Z,92.72
2018-03-08T04:53:14.873Z,92.83
2018-03-08T04:54:20.983Z,92.42
2018-03-08T04:55:27.163Z,92.32
2018-03-08T04:56:33.029Z,92.36
2018-03-08T04:57:39.222Z,92.38
2018-03-08T04:58:45.361Z,92.13
2018-03-08T04:59:51.518Z,91.95
2018-03-08T05:00:57.640Z,91.81
2018-03-08T05:02:03.849Z,91.93
2018-03-08T05:03:09.821Z,91.97
2018-03-08T05:04:16.188Z,91.99
2018-03-08T05:05:22.579Z,91.77
2018-03-08T05:06:28.942Z,91.83
2018-03-08T05:07:35.182Z,92.03
2018-03-08T05:08:41.404Z,92.21
2018-03-08T05:09:47.625Z,92.20
2018-03-08T05:10:53.897Z,91.96
2018-03-08T05:11:59.836Z,91.97
2018-03-08T05:13:05.707Z,91.92
2018-03-08T05:14:11.845Z,91.93
2018-03-08T05:15:17.942Z,91.79
2018-03-08T05:16:24.115Z,91.73
2018-03-08T05:17:30.204Z,91.70
2018-03-08T05:18:36.023Z,91.39
2018-03-08T05:19:42.115Z,91.53
2018-03-08T05:20:48.247Z,91.80
2018-03-08T05:21:54.401Z,91.73
2018-03-08T05:23:00.490Z,91.90
2018-03-08T05:24:06.660Z,92.14
2018-03-08T05:25:12.792Z,92.26
2018-03-08T05:26:18.929Z,92.54
2018-03-08T05:27:25.410Z,92.69
2018-03-08T05:28:31.702Z,92.64
2018-03-08T05:29:37.847Z,92.80
2018-03-08T05:30:43.992Z,92.64
2018-03-08T05:31:50.110Z,92.41
2018-03-08T05:32:56.182Z,92.18
2018-03-08T05:34:02.349Z,92.06
2018-03-08T05:35:08.588Z,92.13
2018-03-08T05:36:14.670Z,92.13
2018-03-08T05:37:20.795Z,92.14
2018-03-08T05:38:26.895Z,92.15
2018-03-08T05:39:33.037Z,92.01
2018-03-08T05:40:39.160Z,91.83
2018-03-08T05:41:48.562Z,92.01
2018-03-08T05:42:54.673Z,92.25
2018-03-08T05:44:00.594Z,92.28
2018-03-08T05:45:06.755Z,92.20
2018-03-08T05:46:12.862Z,92.29
2018-03-08T05:47:18.996Z,92.46
2018-03-08T05:48:25.165Z,92.38
2018-03-08T05:49:31.346Z,92.42
2018-03-08T05:50:37.473Z,92.42
2018-03-08T05:51:43.641Z,92.71
2018-03-08T05:52:49.761Z,92.81
2018-03-08T05:53:55.923Z,92.99
2018-03-08T05:55:02.031Z,93.34
2018-03-08T05:56:08.224Z,93.60
2018-03-08T05:57:14.397Z,93.73
2018-03-08T05:58:20.529Z,93.60
2018-03-08T05:59:26.668Z,93.45
2018-03-08T06:00:32.815Z,93.39
2018-03-08T06:01:39.083Z,93.14
2018-03-08T06:02:45.295Z,93.18
2018-03-08T06:03:51.557Z,93.14
2018-03-08T06:04:57.734Z,93.22
2018-03-08T06:06:03.910Z,93.03
2018-03-08T06:07:10.616Z,93.12
2018-03-08T06:08:16.721Z,93.23
2018-03-08T06:09:22.811Z,93.26
2018-03-08T06:10:28.930Z,93.46
2018-03-08T06:11:34.853Z,93.50
2018-03-08T06:12:41.011Z,93.53
2018-03-08T06:13:47.145Z,93.09
2018-03-08T06:14:53.312Z,93.06
2018-03-08T06:15:59.473Z,93.03
2018-03-08T06:17:05.643Z,93.00
2018-03-08T06:18:11.556Z,92.98
2018-03-08T06:19:17.700Z,92.93
2018-03-08T06:20:23.818Z,92.85
2018-03-08T06:21:29.953Z,92.88
2018-03-08T06:22:36.088Z,92.98
2018-03-08T06:23:42.196Z,93.06
2018-03-08T06:24:48.366Z,93.16
2018-03-08T06:25:54.485Z,93.14
2018-03-08T06:27:00.840Z,93.14
2018-03-08T06:28:08.229Z,93.20
2018-03-08T06:29:14.173Z,93.70
2018-03-08T06:30:20.357Z,93.79
2018-03-08T06:31:26.830Z,93.87
2018-03-08T06:32:33.582Z,94.00
2018-03-08T06:33:41.649Z,93.96
2018-03-08T06:34:48.836Z,94.06
2018-03-08T06:35:56.170Z,94.26
2018-03-08T06:37:02.789Z,94.31
2018-03-08T06:38:08.934Z,94.45
2018-03-08T06:39:21.479Z,94.13
2018-03-08T06:40:28.406Z,94.00
2018-03-08T06:41:34.538Z,93.84
2018-03-08T06:42:40.736Z,93.54
2018-03-08T06:43:46.837Z,93.39
2018-03-08T06:44:52.756Z,93.46
2018-03-08T06:45:58.932Z,93.57
2018-03-08T06:47:04.404Z,93.61
2018-03-08T06:48:10.208Z,93.63
2018-03-08T06:49:16.365Z,93.63
2018-03-08T06:50:22.533Z,93.62
2018-03-08T06:51:28.709Z,93.72
2018-03-08T06:52:34.837Z,93.60
2018-03-08T06:53:41.028Z,93.50
2018-03-08T06:54:47.213Z,93.39
2018-03-08T06:55:53.333Z,93.10
2018-03-08T06:56:59.513Z,92.81
2018-03-08T06:58:05.641Z,92.81
2018-03-08T06:59:11.790Z,93.04
2018-03-08T07:00:17.960Z,92.99
2018-03-08T07:01:24.081Z,92.83
2018-03-08T07:02:30.295Z,92.65
2018-03-08T07:03:36.414Z,92.76
2018-03-08T07:04:42.537Z,92.67
2018-03-08T07:05:48.689Z,92.45
2018-03-08T07:06:54.809Z,92.45
2018-03-08T07:08:00.912Z,92.08
2018-03-08T07:09:07.137Z,92.11
2018-03-08T07:10:13.265Z,91.83
2018-03-08T07:11:19.437Z,91.79
2018-03-08T07:12:25.587Z,91.50
2018-03-08T07:13:31.705Z,91.36
2018-03-08T07:14:37.869Z,91.17
2018-03-08T07:15:44.389Z,91.32
2018-03-08T07:16:50.561Z,91.17
2018-03-08T07:17:56.672Z,90.79
2018-03-08T07:19:02.817Z,90.77
2018-03-08T07:20:10.416Z,90.77
2018-03-08T07:21:16.671Z,90.75
2018-03-08T07:22:22.796Z,90.27
2018-03-08T07:23:28.972Z,90.32
2018-03-08T07:24:34.929Z,90.36
2018-03-08T07:25:41.087Z,90.02
2018-03-08T07:26:47.244Z,90.12
2018-03-08T07:27:53.339Z,90.04
2018-03-08T07:28:59.577Z,89.58
2018-03-08T07:30:05.396Z,89.13
2018-03-08T07:31:11.653Z,89.18
2018-03-08T07:32:17.944Z,88.90
2018-03-08T07:33:24.060Z,88.63
2018-03-08T07:34:30.139Z,88.55
2018-03-08T07:35:36.300Z,88.12
2018-03-08T07:36:42.433Z,88.10
2018-03-08T07:37:48.596Z,87.88
2018-03-08T07:38:54.587Z,88.30
2018-03-08T07:40:00.697Z,87.99
2018-03-08T07:41:06.832Z,87.63
2018-03-08T07:42:13.062Z,87.58
2018-03-08T07:43:19.181Z,87.67
2018-03-08T07:44:25.339Z,87.88
2018-03-08T07:45:32.304Z,88.04
2018-03-08T07:46:38.440Z,88.03
2018-03-08T07:47:44.829Z,87.77
2018-03-08T07:48:51.002Z,87.14
2018-03-08T07:49:57.119Z,87.03
2018-03-08T07:51:03.759Z,87.12
2018-03-08T07:52:09.875Z,86.97
2018-03-08T07:53:16.076Z,86.52
2018-03-08T07:54:22.241Z,85.84
2018-03-08T07:55:28.103Z,85.75
2018-03-08T07:56:34.249Z,85.29
2018-03-08T07:57:40.410Z,84.79
2018-03-08T07:58:46.524Z,84.61
2018-03-08T07:59:52.690Z,84.32
2018-03-08T08:00:58.877Z,84.00
2018-03-08T08:02:04.677Z,83.43
2018-03-08T08:03:10.860Z,83.71
2018-03-08T08:04:27.559Z,83.52
2018-03-08T08:05:44.480Z,83.36
2018-03-08T08:07:01.557Z,83.32
2018-03-08T08:08:18.621Z,83.13
2018-03-08T08:09:24.488Z,82.97
2018-03-08T08:10:30.452Z,82.34
2018-03-08T08:11:36.217Z,82.47
2018-03-08T08:12:42.368Z,82.12
2018-03-08T08:13:48.538Z,82.23
2018-03-08T08:14:54.671Z,81.92
2018-03-08T08:16:00.765Z,81.69
2018-03-08T08:17:06.637Z,81.24
2018-03-08T08:18:12.794Z,80.53
2018-03-08T08:19:18.989Z,80.77
2018-03-08T08:20:25.150Z,80.75
2018-03-08T08:21:31.280Z,80.65
2018-03-08T08:22:37.417Z,80.32
2018-03-08T08:23:43.511Z,79.50
2018-03-08T08:24:49.271Z,78.98
2018-03-08T08:25:55.431Z,78.74
2018-03-08T08:27:01.577Z,79.22
2018-03-08T08:28:07.718Z,78.98
2018-03-08T08:29:13.866Z,79.22
2018-03-08T08:30:20.044Z,78.88
2018-03-08T08:31:26.525Z,79.42
2018-03-08T08:32:32.607Z,78.94
2018-03-08T08:33:38.686Z,79.05
2018-03-08T08:34:44.774Z,79.28
2018-03-08T08:35:50.588Z,78.64
2018-03-08T08:36:56.758Z,78.18
2018-03-08T08:38:02.947Z,77.91
2018-03-08T08:39:09.120Z,78.19
2018-03-08T08:40:15.256Z,78.09
2018-03-08T08:41:21.442Z,77.75
2018-03-08T08:42:27.305Z,77.60
2018-03-08T08:43:33.405Z,77.68
2018-03-08T08:44:39.579Z,77.50
2018-03-08T08:45:45.667Z,76.76
2018-03-08T08:46:51.766Z,76.68
2018-03-08T08:47:57.938Z,76.63
2018-03-08T08:49:04.036Z,75.93
2018-03-08T08:50:10.166Z,75.48
2018-03-08T08:51:15.950Z,75.68
2018-03-08T08:52:22.060Z,75.67
2018-03-08T08:53:28.197Z,75.83
2018-03-08T08:54:34.329Z,75.77
2018-03-08T08:55:40.672Z,75.23
2018-03-08T08:56:46.788Z,74.63
2018-03-08T08:57:52.920Z,74.34
2018-03-08T08:58:59.064Z,74.06
2018-03-08T09:00:04.506Z,73.62
2018-03-08T09:01:10.632Z,73.21
2018-03-08T09:02:16.752Z,72.71
2018-03-08T09:03:22.882Z,72.28
2018-03-08T09:04:28.989Z,72.43
2018-03-08T09:05:38.865Z,72.25
2018-03-08T09:06:45.037Z,72.19
2018-03-08T09:07:51.195Z,72.04
2018-03-08T09:08:57.320Z,71.83
2018-03-08T09:10:03.070Z,71.21
2018-03-08T09:11:09.188Z,71.24
2018-03-08T09:12:15.327Z,71.15
2018-03-08T09:13:21.425Z,71.34
2018-03-08T09:14:27.528Z,71.12
2018-03-08T09:15:33.688Z,70.49
2018-03-08T09:16:39.849Z,70.33
2018-03-08T09:17:45.977Z,70.14
2018-03-08T09:18:52.103Z,70.22
2018-03-08T09:19:57.936Z,70.03
2018-03-08T09:21:04.122Z,70.01
2018-03-08T09:22:10.432Z,69.89
2018-03-08T09:23:24.009Z,69.11
2018-03-08T09:24:30.114Z,68.97
2018-03-08T09:25:36.250Z,68.74
2018-03-08T09:26:42.372Z,68.70
2018-03-08T09:27:48.565Z,68.75
2018-03-08T09:28:54.651Z,69.43
2018-03-08T09:30:00.756Z,69.49
2018-03-08T09:31:07.146Z,69.04
2018-03-08T09:32:18.034Z,69.00
2018-03-08T09:33:24.170Z,69.06
2018-03-08T09:34:30.332Z,68.75
2018-03-08T09:35:36.416Z,68.22
2018-03-08T09:36:42.508Z,68.11
2018-03-08T09:37:48.476Z,67.48
2018-03-08T09:38:54.590Z,67.14
2018-03-08T09:40:00.688Z,67.22
2018-03-08T09:41:07.031Z,67.18
2018-03-08T09:42:13.208Z,67.14
2018-03-08T09:43:19.396Z,66.80
2018-03-08T09:44:25.501Z,66.53
2018-03-08T09:45:31.636Z,66.58
2018-03-08T09:46:37.744Z,66.10
2018-03-08T09:47:43.692Z,65.47
2018-03-08T09:48:49.849Z,65.21
2018-03-08T09:49:56.015Z,65.88
2018-03-08T09:51:02.202Z,65.39
2018-03-08T09:52:08.321Z,65.82
2018-03-08T09:53:14.427Z,65.74
2018-03-08T09:54:20.572Z,65.71
2018-03-08T09:55:26.733Z,65.31
2018-03-08T09:56:32.904Z,65.15
2018-03-08T09:57:38.985Z,65.10
2018-03-08T09:58:45.141Z,65.05
2018-03-08T09:59:51.304Z,65.07
2018-03-08T10:00:57.434Z,64.55
2018-03-08T10:02:03.642Z,64.52
2018-03-08T10:03:09.722Z,64.08
2018-03-08T10:04:15.834Z,64.93
2018-03-08T10:05:21.988Z,65.50
2018-03-08T10:06:28.360Z,64.63
2018-03-08T10:07:34.538Z,64.80
2018-03-08T10:08:40.649Z,64.23
2018-03-08T10:09:46.756Z,64.16
2018-03-08T10:10:52.528Z,64.19
2018-03-08T10:11:58.952Z,64.32
2018-03-08T10:13:05.088Z,63.76
2018-03-08T10:14:11.205Z,63.41
2018-03-08T10:15:17.293Z,62.64
2018-03-08T10:16:23.691Z,62.46
2018-03-08T10:17:29.953Z,62.13
2018-03-08T10:18:36.043Z,62.23
2018-03-08T10:19:42.123Z,62.45
2018-03-08T10:20:48.330Z,62.63
2018-03-08T10:21:54.490Z,62.45
2018-03-08T10:23:00.633Z,62.21
2018-03-08T10:24:06.744Z,62.17
2018-03-08T10:25:12.901Z,62.34
2018-03-08T10:26:24.226Z,62.00
2018-03-08T10:27:30.362Z,62.34
2018-03-08T10:28:36.471Z,61.96
2018-03-08T10:29:42.648Z,62.52
2018-03-08T10:30:49.590Z,62.80
2018-03-08T10:31:55.732Z,62.54
2018-03-08T10:33:01.833Z,62.92
2018-03-08T10:34:07.968Z,62.86
2018-03-08T10:35:14.119Z,62.45
2018-03-08T10:36:20.224Z,62.55
2018-03-08T10:37:26.352Z,62.32
2018-03-08T10:38:32.449Z,61.62
2018-03-08T10:39:38.583Z,61.15
2018-03-08T10:40:44.408Z,61.35
2018-03-08T10:41:50.571Z,61.41
2018-03-08T10:42:56.718Z,62.17
2018-03-08T10:44:02.830Z,62.60
2018-03-08T10:45:08.965Z,62.43
2018-03-08T10:46:15.289Z,62.65
2018-03-08T10:47:21.439Z,62.62
2018-03-08T10:48:27.529Z,62.50
2018-03-08T10:49:33.641Z,62.12
2018-03-08T10:50:39.772Z,61.94
2018-03-08T10:51:45.874Z,61.39
2018-03-08T10:52:51.959Z,61.66
2018-03-08T10:53:58.095Z,62.04
2018-03-08T10:55:03.842Z,61.54
2018-03-08T10:56:09.977Z,61.20
2018-03-08T10:57:15.466Z,62.24
2018-03-08T10:58:21.609Z,62.88
2018-03-08T10:59:27.715Z,62.92
2018-03-08T11:00:39.178Z,63.27
2018-03-08T11:01:45.240Z,62.82
2018-03-08T11:02:52.383Z,62.73
2018-03-08T11:04:03.989Z,62.16
2018-03-08T11:05:09.909Z,62.17
2018-03-08T11:06:21.063Z,62.27
2018-03-08T11:07:27.207Z,62.04
2018-03-08T11:08:33.369Z,62.05
2018-03-08T11:09:39.521Z,62.01
2018-03-08T11:10:45.620Z,62.09
2018-03-08T11:11:51.784Z,61.80
2018-03-08T11:12:57.880Z,61.85
2018-03-08T11:14:04.030Z,61.89
2018-03-08T11:15:10.166Z,62.05
2018-03-08T11:16:16.598Z,62.55
2018-03-08T11:17:27.805Z,62.22
2018-03-08T11:18:34.004Z,62.00
2018-03-08T11:19:40.130Z,61.82
2018-03-08T11:20:46.238Z,62.23
2018-03-08T11:21:52.099Z,62.49
2018-03-08T11:22:58.223Z,62.97
2018-03-08T11:24:04.021Z,62.96
2018-03-08T11:25:10.141Z,62.83
2018-03-08T11:26:16.246Z,63.17
2018-03-08T11:27:22.397Z,63.12
2018-03-08T11:28:28.537Z,63.22
2018-03-08T11:29:34.678Z,62.56
2018-03-08T11:30:40.797Z,63.13
2018-03-08T11:31:46.939Z,63.11
2018-03-08T11:32:53.114Z,63.16
2018-03-08T11:33:59.283Z,63.64
2018-03-08T11:35:05.517Z,63.51
2018-03-08T11:36:11.628Z,63.15
2018-03-08T11:37:17.735Z,63.60
2018-03-08T11:38:24.712Z,63.33
2018-03-08T11:39:30.852Z,63.61
2018-03-08T11:40:36.968Z,63.41
2018-03-08T11:41:43.100Z,63.61
2018-03-08T11:42:49.244Z,63.65
2018-03-08T11:43:55.412Z,63.81
2018-03-08T11:45:01.829Z,63.58
2018-03-08T11:46:07.929Z,63.89
2018-03-08T11:47:14.046Z,63.79
2018-03-08T11:48:20.234Z,63.76
2018-03-08T11:49:26.456Z,63.36
2018-03-08T11:50:32.583Z,63.13
2018-03-08T11:51:38.739Z,63.23
2018-03-08T11:52:44.833Z,63.21
2018-03-08T11:53:50.958Z,63.02
2018-03-08T11:54:57.218Z,63.04
2018-03-08T11:56:03.566Z,62.97
2018-03-08T11:57:09.717Z,62.18
2018-03-08T11:58:15.805Z,62.29
2018-03-08T11:59:21.939Z,62.46
2018-03-08T12:00:28.080Z,62.51
2018-03-08T12:01:34.260Z,62.42
2018-03-08T12:02:40.464Z,62.92
2018-03-08T12:03:46.594Z,62.87
2018-03-08T12:04:52.761Z,62.84
2018-03-08T12:05:58.908Z,62.29
2018-03-08T12:07:04.668Z,61.97
2018-03-08T12:08:10.767Z,61.75
2018-03-08T12:09:16.880Z,62.03
2018-03-08T12:10:23.024Z,61.33
2018-03-08T12:11:29.156Z,60.58
2018-03-08T12:12:35.269Z,59.93
2018-03-08T12:13:41.404Z,60.02
2018-03-08T12:14:47.537Z,60.90
2018-03-08T12:15:53.660Z,60.62
2018-03-08T12:16:59.881Z,60.83
2018-03-08T12:18:06.176Z,61.04
2018-03-08T12:19:12.317Z,60.97
2018-03-08T12:20:18.572Z,60.67
2018-03-08T12:21:24.667Z,60.80
2018-03-08T12:22:30.793Z,60.35
2018-03-08T12:23:36.932Z,60.60
2018-03-08T12:24:44.437Z,60.35
2018-03-08T12:25:50.620Z,59.77
2018-03-08T12:26:56.786Z,59.43
2018-03-08T12:28:02.921Z,59.26
2018-03-08T12:29:09.061Z,58.81
2018-03-08T12:30:15.185Z,59.35
2018-03-08T12:31:21.288Z,59.06
2018-03-08T12:32:27.667Z,59.52
2018-03-08T12:33:33.855Z,59.61
2018-03-08T12:34:40.001Z,59.61
2018-03-08T12:35:46.141Z,59.28
2018-03-08T12:36:52.367Z,59.52
2018-03-08T12:37:58.550Z,59.42
2018-03-08T12:39:03.784Z,59.96
2018-03-08T12:40:09.953Z,60.05
2018-03-08T12:41:16.085Z,59.99
2018-03-08T12:42:22.401Z,60.01
2018-03-08T12:43:28.806Z,60.18
2018-03-08T12:44:35.000Z,60.32
2018-03-08T12:45:41.197Z,60.11
2018-03-08T12:46:47.349Z,59.85
2018-03-08T12:47:53.537Z,59.24
2018-03-08T12:48:59.731Z,59.40
2018-03-08T12:50:05.946Z,59.53
2018-03-08T12:51:12.081Z,59.55
2018-03-08T12:52:17.969Z,59.93
2018-03-08T12:53:24.102Z,59.69
2018-03-08T12:54:30.234Z,59.19
2018-03-08T12:55:36.329Z,58.75
2018-03-08T12:56:42.476Z,58.04
2018-03-08T12:57:48.684Z,58.15
2018-03-08T12:58:54.867Z,57.96
2018-03-08T13:00:01.005Z,58.05
2018-03-08T13:01:07.024Z,57.78
2018-03-08T13:02:12.897Z,58.40
2018-03-08T13:03:19.103Z,58.40
2018-03-08T13:04:25.385Z,58.50
2018-03-08T13:05:31.734Z,58.94
2018-03-08T13:06:37.858Z,59.37
2018-03-08T13:07:44.015Z,59.56
2018-03-08T13:08:50.169Z,59.32
2018-03-08T13:09:56.374Z,59.09
2018-03-08T13:11:02.592Z,59.17
2018-03-08T13:12:08.758Z,59.29
2018-03-08T13:13:14.922Z,59.96
2018-03-08T13:14:20.912Z,59.87
2018-03-08T13:15:27.097Z,59.71
2018-03-08T13:16:33.338Z,59.22
2018-03-08T13:17:39.511Z,59.14
2018-03-08T13:18:45.696Z,59.19
2018-03-08T13:19:51.841Z,58.80
2018-03-08T13:20:58.019Z,58.45
2018-03-08T13:22:04.198Z,58.61
2018-03-08T13:23:10.361Z,58.62
2018-03-08T13:24:16.616Z,58.63
2018-03-08T13:25:22.831Z,58.95
2018-03-08T13:26:28.773Z,59.25
2018-03-08T13:27:34.952Z,59.04
2018-03-08T13:28:41.431Z,59.03
2018-03-08T13:29:47.610Z,59.49
2018-03-08T13:30:53.751Z,59.56
2018-03-08T13:31:59.963Z,59.87
2018-03-08T13:33:06.145Z,59.71
2018-03-08T13:34:12.344Z,59.70
2018-03-08T13:35:18.716Z,59.91
2018-03-08T13:36:24.890Z,60.37
2018-03-08T13:37:31.107Z,60.23
2018-03-08T13:38:37.312Z,60.48
2018-03-08T13:39:43.452Z,60.83
2018-03-08T13:40:49.644Z,60.75
2018-03-08T13:41:56.057Z,61.04
2018-03-08T13:43:02.230Z,60.81
2018-03-08T13:44:08.396Z,61.16
2018-03-08T13:45:14.526Z,61.35
2018-03-08T13:46:20.694Z,61.02
2018-03-08T13:47:26.947Z,60.98
2018-03-08T13:48:33.490Z,61.41
2018-03-08T13:49:39.699Z,61.57
2018-03-08T13:50:45.894Z,60.86
2018-03-08T13:51:52.068Z,60.77
2018-03-08T13:52:58.234Z,60.42
2018-03-08T13:54:04.693Z,59.99
2018-03-08T13:55:10.865Z,59.92
2018-03-08T13:56:17.037Z,59.79
2018-03-08T13:57:23.223Z,59.38
2018-03-08T13:58:29.430Z,59.27
2018-03-08T13:59:35.599Z,59.76
2018-03-08T14:00:41.818Z,60.37
2018-03-08T14:01:47.947Z,60.11
2018-03-08T14:02:54.119Z,60.22
2018-03-08T14:04:00.307Z,60.27
2018-03-08T14:05:06.507Z,60.39
2018-03-08T14:06:12.676Z,60.15
2018-03-08T14:07:18.492Z,60.36
2018-03-08T14:08:24.624Z,60.20
2018-03-08T14:09:30.865Z,60.29
2018-03-08T14:10:37.068Z,60.33
2018-03-08T14:11:43.234Z,60.07
2018-03-08T14:12:49.471Z,59.73
2018-03-08T14:13:56.104Z,59.57
2018-03-08T14:15:02.271Z,58.95
2018-03-08T14:16:08.261Z,58.72